Time;durP1;ratioP1;P1;durP2;ratioP2;P2;SDS_P1;SDS_P2;PMS_P1;PMS_P2;Temp;Humidity;BMP_temperature;BMP_pressure;BME280_temperature;BME280_humidity;BME280_pressure;Samples;Min_cycle;Max_cycle;Signal;HPM_P1;HPM_P2
2023/02/24 00:00:30;;;;;;;38.03;24.77;;;10.30;99.90;;;;;;5014927;28;20197;-74
2023/02/24 00:03:04;;;;;;;38.75;26.42;;;10.30;99.90;;;;;;5014304;28;20261;-74
2023/02/24 00:05:35;;;;;;;41.08;27.42;;;10.30;99.90;;;;;;5029324;28;20173;-75
2023/02/24 00:08:01;;;;;;;38.70;24.80;;;10.20;99.90;;;;;;5029544;28;20273;-74
2023/02/24 00:10:27;;;;;;;37.60;23.97;;;10.20;99.90;;;;;;5012386;28;20745;-75
2023/02/24 00:12:55;;;;;;;29.30;21.10;;;10.20;99.90;;;;;;5014621;28;20220;-74
2023/02/24 00:15:21;;;;;;;29.20;21.10;;;10.20;99.90;;;;;;5040400;28;20170;-74
2023/02/24 00:17:47;;;;;;;26.33;18.30;;;10.10;99.90;;;;;;5049379;28;20685;-74
2023/02/24 00:20:13;;;;;;;25.90;16.70;;;10.10;99.90;;;;;;5048601;28;20677;-75
2023/02/24 00:22:40;;;;;;;19.65;14.68;;;10.10;99.90;;;;;;5032218;28;20191;-75
2023/02/24 00:25:07;;;;;;;16.50;12.75;;;10.10;99.90;;;;;;5034004;28;20181;-75
2023/02/24 00:27:33;;;;;;;16.63;11.52;;;10.10;99.90;;;;;;5035658;28;20192;-74
2023/02/24 00:30:00;;;;;;;16.30;10.73;;;10.10;99.90;;;;;;5032036;28;20196;-74
2023/02/24 00:32:27;;;;;;;9.95;7.88;;;10.10;99.90;;;;;;5031771;28;20174;-74
2023/02/24 00:34:54;;;;;;;12.60;8.93;;;10.00;99.90;;;;;;5015787;28;20197;-75
2023/02/24 00:37:23;;;;;;;10.13;7.03;;;10.00;99.90;;;;;;5048378;28;20200;-74
2023/02/24 00:39:49;;;;;;;11.03;6.70;;;10.00;99.90;;;;;;5031820;28;20256;-74
2023/02/24 00:42:16;;;;;;;8.40;5.22;;;10.00;99.90;;;;;;5020266;28;20174;-74
2023/02/24 00:44:46;;;;;;;14.48;6.20;;;9.90;99.90;;;;;;5012109;28;20210;-74
2023/02/24 00:47:18;;;;;;;9.15;4.55;;;9.90;99.90;;;;;;5012390;28;20206;-74
2023/02/24 00:49:44;;;;;;;8.90;4.97;;;9.90;99.90;;;;;;5012844;28;20242;-74
2023/02/24 00:52:19;;;;;;;9.10;5.10;;;9.80;99.90;;;;;;5000568;28;20197;-74
2023/02/24 00:54:47;;;;;;;11.77;5.47;;;9.80;99.90;;;;;;5040504;28;20186;-74
2023/02/24 00:57:13;;;;;;;7.90;4.05;;;9.80;99.90;;;;;;5031185;28;20674;-74
2023/02/24 00:59:39;;;;;;;11.10;4.57;;;9.70;99.90;;;;;;5047677;28;20256;-74
2023/02/24 01:02:05;;;;;;;9.90;4.97;;;9.70;99.90;;;;;;5032107;28;20249;-75
2023/02/24 01:04:32;;;;;;;12.30;5.20;;;9.70;99.90;;;;;;5033564;28;20655;-74
2023/02/24 01:07:01;;;;;;;7.93;5.05;;;9.70;99.90;;;;;;5048402;28;20278;-74
2023/02/24 01:09:29;;;;;;;12.07;5.70;;;9.60;99.90;;;;;;5048282;28;20170;-74
2023/02/24 01:14:51;;;;;;;10.07;5.53;;;9.60;99.90;;;;;;5017782;28;20244;-74
2023/02/24 01:17:18;;;;;;;10.00;5.75;;;9.50;99.90;;;;;;5028379;28;20570;-74
2023/02/24 01:19:47;;;;;;;10.73;5.35;;;9.50;99.90;;;;;;5012113;28;20228;-74
2023/02/24 01:22:14;;;;;;;12.95;5.70;;;9.50;99.90;;;;;;5030927;28;20290;-74
2023/02/24 01:24:42;;;;;;;11.88;6.00;;;9.50;99.90;;;;;;5031738;28;20174;-74
2023/02/24 01:27:10;;;;;;;9.65;5.63;;;9.50;99.90;;;;;;5031231;28;20255;-74
2023/02/24 01:29:38;;;;;;;9.48;5.90;;;9.40;99.90;;;;;;5015256;28;20182;-74
2023/02/24 01:32:16;;;;;;;9.50;5.18;;;9.40;99.90;;;;;;5014262;28;20217;-75
2023/02/24 01:34:41;;;;;;;13.32;5.65;;;9.40;99.90;;;;;;5031417;28;20177;-74
2023/02/24 01:37:08;;;;;;;11.80;6.67;;;9.40;99.90;;;;;;5031205;28;20201;-74
2023/02/24 01:39:34;;;;;;;13.85;6.32;;;9.40;99.90;;;;;;5000805;28;20180;-74
2023/02/24 01:42:03;;;;;;;11.60;6.40;;;9.30;99.90;;;;;;5030369;28;20706;-74
2023/02/24 01:44:31;;;;;;;13.55;6.03;;;9.40;99.90;;;;;;5031167;28;20185;-74
2023/02/24 01:47:02;;;;;;;13.63;6.93;;;9.30;99.90;;;;;;5014592;28;20235;-74
2023/02/24 01:49:44;;;;;;;20.55;9.20;;;9.30;99.90;;;;;;5014060;28;20189;-74
2023/02/24 01:52:19;;;;;;;12.63;6.95;;;9.30;99.90;;;;;;5014194;28;20201;-74
2023/02/24 01:55:09;;;;;;;13.68;6.38;;;9.30;99.90;;;;;;5012353;28;20528;-74
2023/02/24 01:57:37;;;;;;;17.08;7.15;;;9.20;99.90;;;;;;5012532;28;20248;-74
2023/02/24 02:00:10;;;;;;;12.05;6.88;;;9.20;99.90;;;;;;5010529;28;20253;-74
2023/02/24 02:02:43;;;;;;;13.23;6.88;;;9.20;99.90;;;;;;5025782;28;20189;-74
2023/02/24 02:05:19;;;;;;;15.05;7.43;;;9.20;99.90;;;;;;5030886;28;20204;-74
2023/02/24 02:07:45;;;;;;;15.30;8.07;;;9.20;99.90;;;;;;5014189;28;20201;-74
2023/02/24 02:10:12;;;;;;;16.23;6.73;;;9.20;99.90;;;;;;5029114;28;20178;-74
2023/02/24 02:12:42;;;;;;;13.68;7.40;;;9.20;99.90;;;;;;5006653;28;20591;-74
2023/02/24 02:15:15;;;;;;;25.00;9.50;;;9.20;99.90;;;;;;5010638;28;20177;-74
2023/02/24 02:17:53;;;;;;;17.83;7.20;;;9.20;99.90;;;;;;5048564;28;20193;-74
2023/02/24 02:20:37;;;;;;;10.82;7.20;;;9.20;99.90;;;;;;5023924;28;20174;-74
2023/02/24 02:23:22;;;;;;;20.00;9.75;;;9.20;99.90;;;;;;5011898;28;20166;-74
2023/02/24 02:26:28;;;;;;;16.70;9.40;;;9.20;99.90;;;;;;5010298;28;20182;-74
2023/02/24 02:29:22;;;;;;;13.38;7.60;;;9.20;99.90;;;;;;5030106;28;20680;-73
2023/02/24 02:31:56;;;;;;;14.25;8.48;;;9.10;99.90;;;;;;5011153;28;20212;-73
2023/02/24 02:34:30;;;;;;;19.45;8.10;;;9.10;99.90;;;;;;5011290;28;20197;-75
2023/02/24 02:37:04;;;;;;;12.95;7.88;;;9.10;99.90;;;;;;5013609;28;20594;-80
2023/02/24 02:39:49;;;;;;;20.33;9.10;;;9.10;99.90;;;;;;5013441;28;20579;-80
2023/02/24 02:42:23;;;;;;;13.65;9.27;;;9.10;99.90;;;;;;4995291;28;20613;-80
2023/02/24 02:45:10;;;;;;;17.33;9.80;;;9.10;99.90;;;;;;5012539;28;20185;-80
2023/02/24 02:47:58;;;;;;;14.05;8.68;;;9.10;99.90;;;;;;5018253;28;20186;-79
2023/02/24 02:50:37;;;;;;;15.27;9.38;;;9.10;99.90;;;;;;5013012;28;20205;-80
2023/02/24 02:53:21;;;;;;;22.02;9.88;;;9.00;99.90;;;;;;5012231;28;20634;-80
2023/02/24 02:56:13;;;;;;;17.50;8.32;;;9.00;99.90;;;;;;5014276;28;20230;-81
2023/02/24 02:58:44;;;;;;;18.88;8.73;;;9.00;99.90;;;;;;5014359;28;20166;-79
2023/02/24 03:01:15;;;;;;;24.95;10.55;;;9.00;99.90;;;;;;5011585;28;20291;-80
2023/02/24 03:03:48;;;;;;;18.15;12.32;;;9.00;99.90;;;;;;5010518;28;20710;-80
2023/02/24 03:06:25;;;;;;;17.52;10.30;;;8.90;99.90;;;;;;5010686;28;20221;-80
2023/02/24 03:09:14;;;;;;;24.50;11.82;;;8.90;99.90;;;;;;5026847;28;20182;-80
2023/02/24 03:11:43;;;;;;;20.65;10.45;;;8.90;99.90;;;;;;5009618;28;20740;-80
2023/02/24 03:14:13;;;;;;;19.15;10.27;;;8.90;99.90;;;;;;5009824;28;20177;-80
2023/02/24 03:16:41;;;;;;;17.30;9.70;;;8.90;99.90;;;;;;5010345;28;20190;-80
2023/02/24 03:19:12;;;;;;;20.23;10.88;;;8.90;99.90;;;;;;5011304;28;20518;-80
2023/02/24 03:21:46;;;;;;;20.83;9.70;;;8.80;99.90;;;;;;5019817;28;20178;-80
2023/02/24 03:24:17;;;;;;;20.95;11.02;;;8.80;99.90;;;;;;5011574;28;20653;-80
2023/02/24 03:26:50;;;;;;;21.30;10.13;;;8.80;99.90;;;;;;5010385;28;20198;-80
2023/02/24 03:29:29;;;;;;;22.13;10.68;;;8.80;99.90;;;;;;5009984;28;20182;-80
2023/02/24 03:32:03;;;;;;;21.20;10.88;;;8.80;99.90;;;;;;5012784;28;20198;-79
2023/02/24 03:34:54;;;;;;;18.40;11.05;;;8.80;99.90;;;;;;5010595;28;20180;-79
2023/02/24 03:37:26;;;;;;;17.02;8.95;;;8.80;99.90;;;;;;5009716;28;20190;-79
2023/02/24 03:39:55;;;;;;;18.70;9.88;;;8.80;99.90;;;;;;5020323;28;20582;-80
2023/02/24 03:42:24;;;;;;;23.80;11.25;;;8.80;99.90;;;;;;5012585;28;20178;-80
2023/02/24 03:44:49;;;;;;;19.23;8.93;;;8.80;99.90;;;;;;5029517;28;20622;-80
2023/02/24 03:47:19;;;;;;;20.02;9.73;;;8.70;99.90;;;;;;5045776;28;20198;-80
2023/02/24 03:49:46;;;;;;;20.20;8.50;;;8.70;99.90;;;;;;5046117;28;20204;-80
2023/02/24 03:52:39;;;;;;;18.42;10.23;;;8.70;99.90;;;;;;5028836;28;20198;-80
2023/02/24 03:55:11;;;;;;;17.17;8.70;;;8.60;99.90;;;;;;5029697;28;20165;-81
2023/02/24 03:58:05;;;;;;;17.02;9.02;;;8.60;99.90;;;;;;5012583;28;20213;-80
2023/02/24 04:00:57;;;;;;;16.73;8.63;;;8.60;99.90;;;;;;5046077;28;20244;-80
2023/02/24 04:03:32;;;;;;;24.88;10.40;;;8.60;99.90;;;;;;5045483;28;20180;-80
2023/02/24 04:06:35;;;;;;;17.10;9.30;;;8.60;99.90;;;;;;5029853;28;20369;-80
2023/02/24 04:09:38;;;;;;;12.32;8.20;;;8.60;99.90;;;;;;5048323;28;20177;-80
2023/02/24 04:12:45;;;;;;;19.55;8.63;;;8.60;99.90;;;;;;5028938;28;20251;-80
2023/02/24 04:15:20;;;;;;;16.80;8.10;;;8.60;99.90;;;;;;5045619;28;20170;-80
2023/02/24 04:18:00;;;;;;;17.17;9.00;;;8.60;99.90;;;;;;5021159;28;20224;-80
2023/02/24 04:20:34;;;;;;;17.50;7.78;;;8.60;99.90;;;;;;5012397;28;20549;-80
2023/02/24 04:23:09;;;;;;;15.23;7.57;;;8.50;99.90;;;;;;5045947;28;20260;-80
2023/02/24 04:25:39;;;;;;;16.05;8.13;;;8.50;99.90;;;;;;5028778;28;20174;-80
2023/02/24 04:28:06;;;;;;;16.88;7.55;;;8.50;99.90;;;;;;5029317;28;20174;-80
2023/02/24 04:30:39;;;;;;;24.48;8.32;;;8.50;99.90;;;;;;5045280;28;20686;-80
2023/02/24 04:33:06;;;;;;;18.17;7.55;;;8.50;99.90;;;;;;5028584;28;20169;-79
2023/02/24 04:35:33;;;;;;;12.55;7.95;;;8.50;99.90;;;;;;5029050;28;20170;-79
2023/02/24 04:37:59;;;;;;;18.92;6.50;;;8.50;99.90;;;;;;5032287;28;20166;-80
2023/02/24 04:40:26;;;;;;;20.95;7.07;;;8.40;99.90;;;;;;5015783;28;20181;-79
2023/02/24 04:42:53;;;;;;;12.47;4.97;;;8.40;99.90;;;;;;5032640;28;20264;-80
2023/02/24 04:45:24;;;;;;;11.20;5.07;;;8.40;99.90;;;;;;5035776;28;20173;-80
2023/02/24 04:47:54;;;;;;;13.57;4.22;;;8.40;99.90;;;;;;5034628;28;20759;-79
2023/02/24 04:50:24;;;;;;;17.05;4.10;;;8.40;99.90;;;;;;5033791;28;20588;-79
2023/02/24 04:52:55;;;;;;;12.70;3.75;;;8.40;99.90;;;;;;5032104;28;20166;-79
2023/02/24 04:55:25;;;;;;;14.07;3.42;;;8.30;99.90;;;;;;5032512;28;20178;-82
2023/02/24 04:57:55;;;;;;;10.10;3.33;;;8.30;99.90;;;;;;5032321;28;20248;-79
2023/02/24 05:00:22;;;;;;;12.88;2.40;;;8.30;99.90;;;;;;5033311;28;20189;-80
2023/02/24 05:02:54;;;;;;;13.55;3.50;;;8.30;99.90;;;;;;5033210;28;20177;-80
2023/02/24 05:05:24;;;;;;;10.35;2.55;;;8.30;99.90;;;;;;5033970;28;20197;-80
2023/02/24 05:08:02;;;;;;;8.05;2.60;;;8.20;99.90;;;;;;5033223;28;20224;-80
2023/02/24 05:10:33;;;;;;;13.60;3.35;;;8.20;99.90;;;;;;5031891;28;20213;-80
2023/02/24 05:13:02;;;;;;;9.07;2.65;;;8.20;99.90;;;;;;5047781;28;20247;-80
2023/02/24 05:15:31;;;;;;;9.43;3.20;;;8.20;99.90;;;;;;5024182;28;20205;-80
2023/02/24 05:18:06;;;;;;;9.93;3.00;;;8.20;99.90;;;;;;5032578;28;20669;-80
2023/02/24 05:23:28;;;;;;;7.15;1.90;;;8.10;99.90;;;;;;5035005;28;20200;-81
2023/02/24 05:25:54;;;;;;;10.57;2.70;;;8.00;99.90;;;;;;5032572;28;20231;-81
2023/02/24 05:28:23;;;;;;;5.33;2.10;;;8.00;99.90;;;;;;5033633;28;20169;-80
2023/02/24 05:30:50;;;;;;;13.40;3.58;;;8.00;99.90;;;;;;5035780;28;20281;-80
2023/02/24 05:33:20;;;;;;;16.50;3.70;;;7.90;99.90;;;;;;5037886;28;20626;-81
2023/02/24 05:35:47;;;;;;;9.25;3.03;;;7.90;99.90;;;;;;5037763;28;20196;-81
2023/02/24 05:38:13;;;;;;;8.63;2.92;;;7.80;99.90;;;;;;5033639;28;20174;-81
2023/02/24 05:40:45;;;;;;;7.00;2.30;;;7.80;99.90;;;;;;5047790;28;20177;-81
2023/02/24 05:43:16;;;;;;;10.70;3.00;;;7.80;99.90;;;;;;5033148;28;20178;-80
2023/02/24 05:45:45;;;;;;;5.38;2.40;;;7.80;99.90;;;;;;5034421;28;20188;-82
2023/02/24 05:48:15;;;;;;;9.52;2.47;;;7.80;99.90;;;;;;5032130;28;20205;-81
2023/02/24 05:50:45;;;;;;;9.18;2.45;;;7.80;99.90;;;;;;5033028;28;20630;-81
2023/02/24 05:53:14;;;;;;;10.75;2.78;;;7.80;99.90;;;;;;5033114;28;20257;-82
2023/02/24 05:55:40;;;;;;;10.38;2.63;;;7.80;99.90;;;;;;5031565;28;20184;-81
2023/02/24 05:58:06;;;;;;;9.40;2.43;;;7.70;99.90;;;;;;5048196;28;20592;-81
2023/02/24 06:00:32;;;;;;;13.67;3.63;;;7.70;99.90;;;;;;5035561;28;20223;-81
2023/02/24 06:03:07;;;;;;;9.52;2.22;;;7.70;99.90;;;;;;5029870;28;20180;-82
2023/02/24 06:05:34;;;;;;;9.50;2.38;;;7.70;99.90;;;;;;5031606;28;20648;-81
2023/02/24 06:08:03;;;;;;;12.40;2.08;;;7.70;99.90;;;;;;5032160;28;20186;-81
2023/02/24 06:10:32;;;;;;;13.98;2.80;;;7.60;99.90;;;;;;5025293;28;20230;-81
2023/02/24 06:12:59;;;;;;;14.07;3.20;;;7.60;99.90;;;;;;5028042;28;20209;-81
2023/02/24 06:15:26;;;;;;;7.90;2.50;;;7.60;99.90;;;;;;5031575;28;20170;-81
2023/02/24 06:17:55;;;;;;;5.07;2.15;;;7.50;99.90;;;;;;5047979;28;20732;-81
2023/02/24 06:20:23;;;;;;;7.63;3.13;;;7.40;99.90;;;;;;5032851;28;20581;-81
2023/02/24 06:22:53;;;;;;;10.30;3.70;;;7.40;99.90;;;;;;5039733;28;20196;-81
2023/02/24 06:25:20;;;;;;;9.38;2.40;;;7.30;99.90;;;;;;5047717;28;20178;-81
2023/02/24 06:27:52;;;;;;;6.80;2.00;;;7.20;99.90;;;;;;5039736;28;20197;-81
2023/02/24 06:30:18;;;;;;;6.90;2.38;;;7.20;99.90;;;;;;5035042;28;20170;-81
2023/02/24 06:32:43;;;;;;;7.30;1.65;;;7.10;99.90;;;;;;5038430;28;20186;-80
2023/02/24 06:35:11;;;;;;;6.50;1.63;;;7.00;99.90;;;;;;5032715;28;20514;-80
2023/02/24 06:37:38;;;;;;;5.28;1.75;;;7.00;99.90;;;;;;5033304;28;20273;-80
2023/02/24 06:40:14;;;;;;;7.03;1.70;;;7.00;99.90;;;;;;5030954;28;20197;-80
2023/02/24 06:42:54;;;;;;;11.30;2.42;;;7.00;99.90;;;;;;5047870;28;20169;-81
2023/02/24 06:45:21;;;;;;;14.93;2.85;;;7.00;99.90;;;;;;5031105;28;20619;-82
2023/02/24 06:47:49;;;;;;;6.72;1.40;;;7.00;99.90;;;;;;5029603;28;20255;-82
2023/02/24 06:50:20;;;;;;;5.53;1.45;;;7.00;99.90;;;;;;5013596;28;20561;-83
2023/02/24 06:52:47;;;;;;;9.10;2.30;;;7.10;99.90;;;;;;5030371;28;20184;-82
2023/02/24 06:55:25;;;;;;;11.20;1.98;;;7.10;99.90;;;;;;5032163;28;20178;-82
2023/02/24 06:57:57;;;;;;;8.43;2.30;;;7.20;99.90;;;;;;5015751;28;20193;-82
2023/02/24 07:00:37;;;;;;;10.63;2.33;;;7.30;99.90;;;;;;5012333;28;20178;-83
2023/02/24 07:03:14;;;;;;;11.15;1.95;;;7.30;99.90;;;;;;5022857;28;20565;-82
2023/02/24 07:05:41;;;;;;;8.68;2.45;;;7.40;99.90;;;;;;5037190;28;20192;-84
2023/02/24 07:08:07;;;;;;;6.75;2.20;;;7.40;99.90;;;;;;5028804;28;20553;-82
2023/02/24 07:10:33;;;;;;;10.77;2.28;;;7.50;99.90;;;;;;5031008;28;20251;-83
2023/02/24 07:12:59;;;;;;;6.78;1.60;;;7.50;99.90;;;;;;5029594;28;20264;-86
2023/02/24 07:15:30;;;;;;;10.20;1.73;;;7.60;99.90;;;;;;5032136;28;20277;-84
2023/02/24 07:17:57;;;;;;;5.53;1.85;;;7.60;99.90;;;;;;5037034;28;20197;-84
2023/02/24 07:20:24;;;;;;;12.10;1.88;;;7.70;99.90;;;;;;5039880;28;20174;-84
2023/02/24 07:22:51;;;;;;;8.90;2.15;;;7.80;99.90;;;;;;5044192;28;20169;-84
2023/02/24 07:25:32;;;;;;;9.43;2.00;;;7.90;99.90;;;;;;5040436;28;20188;-83
2023/02/24 07:28:00;;;;;;;7.50;2.42;;;7.90;99.90;;;;;;5039145;28;20217;-84
2023/02/24 07:30:32;;;;;;;6.47;1.48;;;8.00;99.90;;;;;;5031288;28;20257;-83
2023/02/24 07:32:59;;;;;;;9.25;1.95;;;8.00;99.90;;;;;;5029045;28;20212;-83
2023/02/24 07:35:25;;;;;;;10.63;1.70;;;8.00;99.90;;;;;;5021167;28;20254;-84
2023/02/24 07:37:51;;;;;;;8.40;1.63;;;8.00;99.90;;;;;;5019547;28;20264;-82
2023/02/24 07:40:20;;;;;;;7.23;2.30;;;8.10;99.90;;;;;;5025483;28;20174;-81
2023/02/24 07:42:47;;;;;;;14.60;2.22;;;8.10;99.90;;;;;;5011272;28;20919;-81
2023/02/24 07:45:14;;;;;;;8.45;1.80;;;8.20;99.90;;;;;;5009293;28;20178;-81
2023/02/24 07:47:40;;;;;;;8.48;2.38;;;8.20;99.90;;;;;;5010500;28;20187;-81
2023/02/24 07:50:13;;;;;;;10.25;1.95;;;8.30;99.90;;;;;;5004692;28;20682;-80
2023/02/24 07:52:40;;;;;;;9.60;2.45;;;8.30;99.90;;;;;;5011267;28;20178;-81
2023/02/24 07:55:07;;;;;;;6.88;2.67;;;8.30;99.90;;;;;;5009283;28;20171;-81
2023/02/24 07:57:36;;;;;;;9.35;3.08;;;8.40;99.90;;;;;;5026196;28;20194;-81
2023/02/24 08:00:16;;;;;;;9.13;1.98;;;8.40;99.90;;;;;;5008981;28;20697;-81
2023/02/24 08:02:42;;;;;;;7.50;1.70;;;8.50;99.90;;;;;;5009867;28;20186;-79
2023/02/24 08:05:08;;;;;;;8.13;2.57;;;8.50;99.90;;;;;;5043646;28;20176;-79
2023/02/24 08:07:34;;;;;;;8.20;1.73;;;8.60;99.90;;;;;;5028260;28;20205;-79
2023/02/24 08:10:09;;;;;;;9.20;2.20;;;8.60;99.90;;;;;;5028708;28;20308;-79
2023/02/24 08:12:41;;;;;;;8.40;1.65;;;8.70;99.90;;;;;;5032031;28;20192;-79
2023/02/24 08:15:15;;;;;;;8.55;2.10;;;8.70;99.90;;;;;;5034226;28;20547;-81
2023/02/24 08:17:42;;;;;;;9.13;1.88;;;8.70;99.90;;;;;;5032609;28;20196;-80
2023/02/24 08:22:42;;;;;;;8.35;2.58;;;8.80;99.90;;;;;;5032447;28;20584;-80
2023/02/24 08:25:16;;;;;;;7.57;1.70;;;8.90;99.90;;;;;;5013079;28;20174;-81
2023/02/24 08:27:44;;;;;;;4.57;1.65;;;8.90;99.90;;;;;;5017814;28;20212;-80
2023/02/24 08:30:22;;;;;;;6.07;2.08;;;8.90;99.90;;;;;;5028981;28;20213;-80
2023/02/24 08:32:58;;;;;;;9.30;1.65;;;9.00;99.90;;;;;;5028776;28;20170;-80
2023/02/24 08:35:30;;;;;;;7.07;2.88;;;9.00;99.90;;;;;;5029345;28;20178;-81
2023/02/24 08:38:08;;;;;;;8.65;2.70;;;9.00;99.90;;;;;;5014008;28;20333;-80
2023/02/24 08:40:49;;;;;;;4.47;1.45;;;9.10;99.90;;;;;;5014374;28;20199;-81
2023/02/24 08:43:16;;;;;;;6.57;1.60;;;9.10;99.90;;;;;;5015966;28;20170;-80
2023/02/24 08:45:49;;;;;;;8.43;2.10;;;9.20;99.90;;;;;;5040046;28;20178;-82
2023/02/24 08:48:25;;;;;;;11.50;2.88;;;9.30;99.90;;;;;;5023325;28;20189;-82
2023/02/24 08:50:55;;;;;;;9.13;2.40;;;9.30;99.90;;;;;;5032320;28;20209;-81
2023/02/24 08:53:22;;;;;;;10.27;3.50;;;9.30;99.90;;;;;;5032809;28;20186;-81
2023/02/24 08:55:51;;;;;;;8.00;2.58;;;9.40;99.90;;;;;;5024504;28;20245;-82
2023/02/24 08:58:18;;;;;;;9.25;2.08;;;9.40;99.90;;;;;;5083090;23;20620;-78
2023/02/24 09:00:52;;;;;;;7.55;2.65;;;9.50;99.90;;;;;;5041248;28;20640;-78
2023/02/24 09:03:28;;;;;;;9.48;3.80;;;9.60;99.90;;;;;;5042344;28;20548;-77
2023/02/24 09:06:05;;;;;;;11.13;3.42;;;9.60;99.90;;;;;;5051172;28;20176;-78
2023/02/24 09:08:37;;;;;;;14.30;4.20;;;9.50;99.90;;;;;;5034927;28;20204;-78
2023/02/24 09:11:08;;;;;;;10.27;3.22;;;9.50;99.90;;;;;;5050508;28;20208;-78
2023/02/24 09:13:57;;;;;;;12.30;2.88;;;9.50;99.90;;;;;;5053110;28;20161;-78
2023/02/24 09:16:23;;;;;;;6.10;1.88;;;9.60;99.90;;;;;;5038516;28;20178;-79
2023/02/24 09:24:25;;;;;;;6.88;2.30;;;9.70;99.90;;;;;;5015306;28;20174;-77
2023/02/24 09:26:58;;;;;;;11.85;2.58;;;9.70;99.90;;;;;;5032042;28;20201;-78
2023/02/24 09:29:33;;;;;;;7.78;2.42;;;9.80;99.90;;;;;;5031448;28;20208;-79
2023/02/24 09:32:04;;;;;;;8.48;2.45;;;9.80;99.90;;;;;;5026715;28;20612;-78
2023/02/24 09:34:35;;;;;;;13.15;3.05;;;9.80;99.90;;;;;;5031433;28;20205;-78
2023/02/24 09:37:02;;;;;;;13.80;2.40;;;9.80;99.90;;;;;;5032456;28;20633;-78
2023/02/24 09:44:54;;;;;;;9.93;2.53;;;9.90;99.90;;;;;;5030810;28;20185;-78
2023/02/24 09:50:36;;;;;;;5.38;1.40;;;10.20;99.90;;;;;;5027264;28;20178;-75
2023/02/24 09:53:16;;;;;;;7.45;1.95;;;10.30;99.90;;;;;;5030652;28;20178;-76
2023/02/24 09:55:59;;;;;;;6.57;1.52;;;10.40;99.90;;;;;;5035054;28;20197;-75
2023/02/24 09:59:12;;;;;;;7.43;2.20;;;10.50;99.90;;;;;;5034773;28;20208;-76
2023/02/24 10:01:56;;;;;;;7.57;3.33;;;10.40;99.90;;;;;;4972821;28;20268;-75
2023/02/24 10:04:47;;;;;;;6.80;2.35;;;10.50;99.90;;;;;;5007545;28;20331;-76
2023/02/24 10:07:25;;;;;;;5.88;2.30;;;10.50;99.90;;;;;;5010660;28;20642;-76
2023/02/24 10:10:18;;;;;;;10.20;3.10;;;10.50;99.90;;;;;;5010571;28;20220;-75
2023/02/24 10:13:02;;;;;;;6.00;1.90;;;10.50;99.90;;;;;;5017234;28;20186;-76
2023/02/24 10:18:59;;;;;;;8.57;2.83;;;10.50;99.90;;;;;;5030417;28;20248;-75
2023/02/24 10:21:59;;;;;;;5.80;2.10;;;10.60;99.90;;;;;;5006322;28;20652;-76
2023/02/24 10:24:28;;;;;;;4.80;2.10;;;10.60;99.90;;;;;;5031043;28;20174;-76
2023/02/24 10:29:49;;;;;;;4.90;2.08;;;10.60;99.90;;;;;;5104374;23;20229;-76
2023/02/24 10:32:42;;;;;;;10.07;3.03;;;10.70;99.90;;;;;;5046177;28;20587;-77
2023/02/24 10:35:18;;;;;;;6.35;2.92;;;10.70;99.90;;;;;;5029969;28;20247;-76
2023/02/24 10:37:44;;;;;;;5.32;2.33;;;10.70;99.90;;;;;;5046208;28;20213;-76
2023/02/24 10:40:25;;;;;;;12.18;3.70;;;10.70;99.90;;;;;;5013126;28;20178;-76
2023/02/24 10:43:02;;;;;;;7.32;3.25;;;10.60;99.90;;;;;;5029017;28;20192;-76
2023/02/24 10:45:30;;;;;;;7.90;2.83;;;10.50;99.90;;;;;;5029863;28;20267;-77
2023/02/24 10:47:59;;;;;;;4.40;3.15;;;10.50;99.90;;;;;;5013236;28;20197;-77
2023/02/24 10:50:42;;;;;;;5.20;3.60;;;10.40;99.90;;;;;;5012512;28;20177;-77
2023/02/24 10:53:33;;;;;;;9.32;3.55;;;10.40;99.90;;;;;;5029347;28;20173;-77
2023/02/24 10:56:25;;;;;;;9.05;3.65;;;10.30;99.90;;;;;;5013703;28;20184;-77
2023/02/24 10:59:39;;;;;;;10.38;3.15;;;10.30;99.90;;;;;;5028815;28;20197;-77
2023/02/24 11:02:28;;;;;;;7.10;2.80;;;10.20;99.90;;;;;;5029308;28;20533;-77
2023/02/24 11:08:25;;;;;;;13.50;4.43;;;10.20;99.90;;;;;;5044680;28;20232;-76
2023/02/24 11:10:57;;;;;;;10.57;3.50;;;10.20;99.90;;;;;;5010256;28;20197;-76
2023/02/24 11:17:16;;;;;;;8.80;3.25;;;10.10;99.90;;;;;;5023595;28;20204;-76
2023/02/24 11:19:53;;;;;;;9.77;3.47;;;10.00;99.90;;;;;;5012713;28;20191;-76
2023/02/24 11:22:31;;;;;;;8.57;3.30;;;9.90;99.90;;;;;;5010245;28;20189;-76
2023/02/24 11:25:03;;;;;;;8.60;2.80;;;9.90;99.90;;;;;;5009700;28;20184;-77
2023/02/24 11:27:29;;;;;;;4.95;2.83;;;9.80;99.90;;;;;;5011909;28;20224;-78
2023/02/24 11:30:34;;;;;;;9.73;3.00;;;9.70;99.90;;;;;;5028397;28;20273;-76
2023/02/24 11:33:11;;;;;;;5.07;2.53;;;9.70;99.90;;;;;;5035686;28;20185;-76
2023/02/24 11:35:57;;;;;;;9.55;3.50;;;9.60;99.90;;;;;;5049321;28;20180;-76
2023/02/24 11:38:38;;;;;;;5.72;2.53;;;9.50;99.90;;;;;;5041330;28;20209;-76
2023/02/24 11:41:21;;;;;;;6.60;3.08;;;9.50;99.90;;;;;;5014422;28;20556;-76
2023/02/24 11:44:14;;;;;;;10.25;4.95;;;9.40;99.90;;;;;;5026320;28;20181;-77
2023/02/24 11:46:49;;;;;;;6.70;3.05;;;9.30;99.90;;;;;;5021591;28;20546;-77
2023/02/24 11:49:32;;;;;;;4.55;3.03;;;9.30;99.90;;;;;;5046454;28;20193;-76
2023/02/24 11:52:03;;;;;;;5.57;2.25;;;9.20;99.90;;;;;;5034054;28;20585;-77
2023/02/24 11:54:37;;;;;;;6.85;2.63;;;9.10;99.90;;;;;;5032616;28;20178;-77
2023/02/24 11:57:07;;;;;;;7.97;2.30;;;9.10;99.90;;;;;;5033023;28;20185;-77
2023/02/24 11:59:45;;;;;;;7.97;1.95;;;9.00;99.90;;;;;;5034061;28;20657;-77
2023/02/24 12:02:14;;;;;;;6.32;2.10;;;9.00;99.90;;;;;;5034499;28;20631;-77
2023/02/24 12:04:54;;;;;;;10.90;2.85;;;8.90;99.90;;;;;;5032290;28;20184;-77
2023/02/24 12:07:23;;;;;;;7.75;2.80;;;8.90;99.90;;;;;;5034201;28;20821;-77
2023/02/24 12:09:58;;;;;;;8.77;3.90;;;8.90;99.90;;;;;;5033326;28;20218;-77
2023/02/24 12:12:28;;;;;;;7.80;3.78;;;8.90;99.90;;;;;;5032333;28;20208;-76
2023/02/24 12:14:57;;;;;;;8.65;2.92;;;8.90;99.90;;;;;;5048850;28;20170;-77
2023/02/24 12:17:34;;;;;;;12.90;3.38;;;8.90;99.90;;;;;;5032703;28;20196;-77
2023/02/24 12:20:05;;;;;;;8.95;3.75;;;8.80;99.90;;;;;;5048514;28;20264;-77
2023/02/24 12:22:49;;;;;;;9.30;2.60;;;8.80;99.90;;;;;;5033732;28;20550;-78
2023/02/24 12:25:18;;;;;;;6.50;3.28;;;8.80;99.90;;;;;;5033490;28;20184;-77
2023/02/24 12:27:56;;;;;;;5.45;3.28;;;8.80;99.90;;;;;;5031989;28;20189;-77
2023/02/24 12:30:50;;;;;;;8.45;2.90;;;8.80;99.90;;;;;;5033907;28;20184;-77
2023/02/24 12:33:53;;;;;;;9.23;2.78;;;8.80;99.90;;;;;;5032346;28;20178;-75
2023/02/24 12:36:42;;;;;;;12.95;4.18;;;8.80;99.90;;;;;;5033498;28;20196;-75
2023/02/24 12:39:14;;;;;;;9.02;5.10;;;8.80;99.90;;;;;;5032783;28;20203;-75
2023/02/24 12:42:00;;;;;;;7.40;4.10;;;8.80;99.90;;;;;;5031611;28;20176;-75
2023/02/24 12:44:57;;;;;;;12.27;5.25;;;8.80;99.90;;;;;;5018601;28;20201;-74
2023/02/24 12:47:40;;;;;;;11.40;5.05;;;8.80;99.90;;;;;;5012427;28;20198;-75
2023/02/24 12:50:33;;;;;;;7.47;4.47;;;8.80;99.90;;;;;;5024581;28;20287;-75
2023/02/24 12:53:36;;;;;;;10.60;3.45;;;8.80;99.90;;;;;;5033137;28;20188;-75
2023/02/24 12:56:20;;;;;;;5.03;2.92;;;8.70;99.90;;;;;;5031979;28;20173;-75
2023/02/24 12:58:49;;;;;;;5.05;2.47;;;8.70;99.90;;;;;;5032980;28;20288;-76
2023/02/24 13:01:32;;;;;;;6.05;2.75;;;8.70;99.90;;;;;;5033479;28;20193;-76
2023/02/24 13:04:06;;;;;;;8.38;3.22;;;8.70;99.90;;;;;;5020477;28;20992;-74
2023/02/24 13:06:59;;;;;;;9.90;2.95;;;8.60;99.90;;;;;;5045260;28;20184;-77
2023/02/24 13:09:45;;;;;;;9.02;2.78;;;8.60;99.90;;;;;;5032634;28;20195;-78
2023/02/24 13:12:17;;;;;;;11.18;2.80;;;8.50;99.90;;;;;;5032829;28;20205;-78
2023/02/24 13:14:43;;;;;;;9.77;3.47;;;8.50;99.90;;;;;;5036354;28;20223;-77
2023/02/24 13:17:09;;;;;;;11.27;3.63;;;8.40;99.90;;;;;;5044834;28;20561;-77
2023/02/24 13:19:40;;;;;;;13.97;3.70;;;8.40;99.90;;;;;;5050917;28;20199;-77
2023/02/24 13:22:12;;;;;;;8.30;3.25;;;8.40;99.90;;;;;;5031034;28;20189;-76
2023/02/24 13:25:03;;;;;;;9.82;4.03;;;8.40;99.90;;;;;;5032876;28;20178;-76
2023/02/24 13:27:34;;;;;;;8.00;4.30;;;8.40;99.90;;;;;;5026891;28;20213;-76
2023/02/24 13:30:05;;;;;;;14.82;4.55;;;8.40;99.90;;;;;;5014798;28;20188;-76
2023/02/24 13:32:37;;;;;;;5.85;2.80;;;8.40;99.90;;;;;;5032238;28;20205;-76
2023/02/24 13:35:23;;;;;;;9.07;3.53;;;8.40;99.90;;;;;;5031481;28;20177;-77
2023/02/24 13:37:48;;;;;;;4.35;2.40;;;8.30;99.90;;;;;;5030284;28;20186;-77
2023/02/24 13:40:17;;;;;;;7.10;3.40;;;8.30;99.90;;;;;;5029515;28;20231;-77
2023/02/24 13:43:03;;;;;;;8.85;2.92;;;8.20;99.90;;;;;;5040586;28;20671;-76
2023/02/24 13:45:35;;;;;;;5.22;2.75;;;8.20;99.90;;;;;;5034370;28;20177;-77
2023/02/24 13:48:28;;;;;;;9.48;3.05;;;8.10;99.90;;;;;;5051094;28;20594;-77
2023/02/24 13:51:02;;;;;;;4.93;2.60;;;8.10;99.90;;;;;;5051960;28;20284;-73
2023/02/24 13:53:58;;;;;;;7.32;2.95;;;8.10;99.90;;;;;;5052437;28;20279;-73
2023/02/24 13:56:44;;;;;;;7.15;2.83;;;8.00;99.90;;;;;;5051332;28;20659;-72
2023/02/24 13:59:31;;;;;;;4.13;2.30;;;8.00;99.90;;;;;;5052130;28;20545;-73
2023/02/24 14:02:13;;;;;;;6.72;2.38;;;8.00;99.90;;;;;;5037195;28;20194;-73